createdAt,value
2019-06-08T00:00:22.984Z,99.90
2019-06-08T00:02:52.349Z,99.90
2019-06-08T00:05:23.008Z,99.90
2019-06-08T00:07:52.472Z,99.90
2019-06-08T00:10:25.535Z,99.90
2019-06-08T00:12:53.152Z,99.90
2019-06-08T00:15:22.512Z,99.90
2019-06-08T00:17:51.913Z,99.90
2019-06-08T00:20:22.067Z,99.90
2019-06-08T00:22:51.492Z,99.90
2019-06-08T00:25:21.239Z,99.90
2019-06-08T00:27:51.724Z,99.90
2019-06-08T00:30:21.084Z,99.90
2019-06-08T00:32:50.457Z,99.90
2019-06-08T00:35:20.778Z,99.90
2019-06-08T00:37:50.432Z,99.90
2019-06-08T00:40:20.997Z,99.90
2019-06-08T00:42:50.460Z,99.90
2019-06-08T00:45:21.586Z,99.90
2019-06-08T00:47:51.105Z,99.90
2019-06-08T00:50:21.067Z,99.90
2019-06-08T00:52:50.536Z,99.90
2019-06-08T00:55:19.975Z,99.90
2019-06-08T00:57:49.347Z,99.90
2019-06-08T01:00:20.430Z,99.90
2019-06-08T01:02:49.887Z,99.90
2019-06-08T01:05:19.903Z,99.90
2019-06-08T01:07:49.613Z,99.90
2019-06-08T01:10:21.260Z,99.90
2019-06-08T01:12:50.656Z,99.90
2019-06-08T01:15:27.695Z,99.90
2019-06-08T01:18:02.165Z,99.90
2019-06-08T01:20:23.473Z,99.90
2019-06-08T01:22:52.884Z,99.90
2019-06-08T01:25:22.239Z,99.90
2019-06-08T01:27:51.602Z,99.90
2019-06-08T01:30:22.213Z,99.90
2019-06-08T01:32:51.627Z,99.90
2019-06-08T01:35:20.991Z,99.90
2019-06-08T01:37:50.351Z,99.90
2019-06-08T01:40:21.203Z,99.90
2019-06-08T01:42:50.756Z,99.90
2019-06-08T01:45:33.158Z,99.90
2019-06-08T01:48:18.924Z,99.90
2019-06-08T01:50:36.276Z,99.90
2019-06-08T01:53:05.660Z,99.90
2019-06-08T01:55:35.095Z,99.90
2019-06-08T01:58:04.541Z,99.90
2019-06-08T02:00:39.680Z,99.90
2019-06-08T02:03:06.152Z,99.90
2019-06-08T02:05:35.504Z,99.90
2019-06-08T02:08:05.023Z,99.90
2019-06-08T02:10:34.981Z,99.90
2019-06-08T02:13:07.653Z,99.90
2019-06-08T02:15:35.477Z,99.90
2019-06-08T02:18:04.844Z,99.90
2019-06-08T02:20:35.262Z,99.90
2019-06-08T02:23:04.850Z,99.90
2019-06-08T02:25:35.572Z,99.90
2019-06-08T02:28:05.189Z,99.90
2019-06-08T02:30:37.195Z,99.90
2019-06-08T02:33:05.581Z,99.90
2019-06-08T02:35:35.929Z,99.90
2019-06-08T02:38:06.429Z,99.90
2019-06-08T02:40:36.903Z,99.90
2019-06-08T02:43:06.462Z,99.90
2019-06-08T02:45:37.003Z,99.90
2019-06-08T02:48:07.466Z,99.90
2019-06-08T02:51:01.838Z,99.90
2019-06-08T02:53:32.118Z,99.90
2019-06-08T02:56:04.258Z,99.90
2019-06-08T02:58:37.959Z,99.90
2019-06-08T03:01:06.289Z,99.90
2019-06-08T03:03:38.410Z,99.90
2019-06-08T03:06:07.768Z,99.90
2019-06-08T03:08:39.232Z,99.90
2019-06-08T03:11:09.018Z,99.90
2019-06-08T03:13:40.346Z,99.90
2019-06-08T03:16:10.641Z,99.90
2019-06-08T03:18:40.610Z,99.90
2019-06-08T03:21:11.052Z,99.90
2019-06-08T03:23:41.520Z,99.90
2019-06-08T03:26:11.476Z,99.90
2019-06-08T03:28:42.183Z,99.90
2019-06-08T03:31:11.959Z,99.90
2019-06-08T03:33:50.941Z,99.90
2019-06-08T03:36:12.365Z,99.90
2019-06-08T03:38:42.559Z,99.90
2019-06-08T03:41:12.762Z,99.90
2019-06-08T03:43:42.453Z,99.90
2019-06-08T03:46:11.913Z,99.90
2019-06-08T03:48:42.189Z,99.90
2019-06-08T03:51:12.303Z,99.90
2019-06-08T03:53:42.660Z,99.90
2019-06-08T03:56:12.716Z,99.90
2019-06-08T03:58:42.885Z,99.90
2019-06-08T04:01:13.114Z,99.90
2019-06-08T04:03:43.840Z,99.90
2019-06-08T04:06:13.598Z,99.90
2019-06-08T04:08:46.606Z,99.90
2019-06-08T04:11:13.984Z,99.90
2019-06-08T04:13:44.658Z,99.90
2019-06-08T04:16:14.376Z,99.90
2019-06-08T04:18:44.680Z,99.90
2019-06-08T04:21:14.765Z,99.90
2019-06-08T04:23:45.371Z,99.90
2019-06-08T04:26:15.150Z,99.90
2019-06-08T04:28:44.909Z,99.90
2019-06-08T04:31:15.540Z,99.90
2019-06-08T04:33:46.557Z,99.90
2019-06-08T04:36:16.097Z,99.90
2019-06-08T04:38:46.216Z,99.90
2019-06-08T04:41:16.495Z,99.90
2019-06-08T04:43:47.292Z,99.90
2019-06-08T04:46:16.893Z,99.90
2019-06-08T04:48:48.020Z,99.90
2019-06-08T04:51:17.284Z,99.90
2019-06-08T04:53:47.227Z,99.90
2019-06-08T04:56:17.179Z,99.90
2019-06-08T04:58:48.541Z,99.90
2019-06-08T05:01:17.568Z,99.90
2019-06-08T05:03:47.670Z,99.90
2019-06-08T05:06:17.968Z,99.90
2019-06-08T05:08:47.511Z,99.90
2019-06-08T05:11:16.942Z,99.90
2019-06-08T05:13:47.616Z,99.90
2019-06-08T05:16:17.084Z,99.90
2019-06-08T05:18:47.334Z,99.90
2019-06-08T05:21:16.888Z,99.90
2019-06-08T05:23:48.259Z,99.90
2019-06-08T05:26:17.227Z,99.90
2019-06-08T05:28:47.367Z,99.90
2019-06-08T05:31:16.884Z,99.90
2019-06-08T05:33:47.489Z,99.90
2019-06-08T05:36:16.932Z,99.90
2019-06-08T05:38:47.540Z,99.90
2019-06-08T05:41:17.062Z,99.90
2019-06-08T05:43:47.637Z,99.90
2019-06-08T05:46:17.075Z,99.90
2019-06-08T05:48:47.929Z,99.90
2019-06-08T05:51:17.411Z,99.90
2019-06-08T05:53:47.833Z,99.90
2019-06-08T05:56:17.385Z,99.90
2019-06-08T05:58:48.046Z,99.90
2019-06-08T06:01:17.443Z,99.90
2019-06-08T06:03:46.800Z,99.90
2019-06-08T06:06:16.192Z,99.90
2019-06-08T06:08:46.562Z,99.90
2019-06-08T06:11:16.032Z,99.90
2019-06-08T06:13:45.403Z,99.90
2019-06-08T06:16:14.783Z,99.90
2019-06-08T06:18:44.991Z,99.90
2019-06-08T06:21:14.429Z,99.90
2019-06-08T06:23:44.882Z,99.90
2019-06-08T06:26:14.571Z,99.90
2019-06-08T06:28:43.931Z,99.90
2019-06-08T06:31:13.320Z,99.90
2019-06-08T06:33:43.835Z,99.90
2019-06-08T06:36:13.371Z,99.90
2019-06-08T06:38:43.803Z,99.90
2019-06-08T06:41:13.213Z,99.90
2019-06-08T06:43:43.883Z,99.90
2019-06-08T06:46:13.288Z,99.90
2019-06-08T06:48:42.650Z,99.90
2019-06-08T06:51:25.163Z,99.90
2019-06-08T06:53:43.081Z,99.90
2019-06-08T06:56:12.479Z,99.90
2019-06-08T06:58:42.981Z,99.90
2019-06-08T07:01:12.548Z,99.90
2019-06-08T07:03:41.879Z,99.90
2019-06-08T07:06:11.267Z,99.90
2019-06-08T07:08:42.072Z,99.90
2019-06-08T07:11:11.520Z,99.90
2019-06-08T07:13:40.885Z,99.90
2019-06-08T07:16:18.542Z,99.90
2019-06-08T07:18:41.286Z,99.90
2019-06-08T07:21:10.680Z,99.90
2019-06-08T07:23:40.059Z,99.90
2019-06-08T07:26:09.428Z,99.90
2019-06-08T07:28:38.875Z,99.90
2019-06-08T07:31:08.407Z,99.90
2019-06-08T07:33:38.060Z,99.90
2019-06-08T07:36:07.485Z,99.90
2019-06-08T07:38:37.013Z,99.90
2019-06-08T07:41:06.410Z,99.90
2019-06-08T07:43:35.814Z,99.90
2019-06-08T07:46:05.248Z,99.90
2019-06-08T07:48:34.611Z,99.90
2019-06-08T07:51:04.014Z,99.90
2019-06-08T07:53:33.348Z,99.90
2019-06-08T07:56:02.751Z,99.90
2019-06-08T07:58:32.119Z,99.90
2019-06-08T08:01:07.722Z,99.90
2019-06-08T08:03:32.508Z,99.90
2019-06-08T08:06:01.895Z,99.90
2019-06-08T08:08:31.263Z,99.90
2019-06-08T08:11:01.352Z,99.90
2019-06-08T08:13:30.700Z,99.90
2019-06-08T08:16:00.722Z,99.90
2019-06-08T08:18:30.253Z,99.90
2019-06-08T08:21:09.051Z,99.90
2019-06-08T08:23:30.673Z,99.90
2019-06-08T08:26:01.738Z,99.90
2019-06-08T08:28:31.084Z,99.90
2019-06-08T08:31:01.874Z,99.90
2019-06-08T08:33:31.328Z,99.90
2019-06-08T08:36:01.944Z,99.90
2019-06-08T08:38:31.588Z,99.90
2019-06-08T08:41:07.274Z,99.90
2019-06-08T08:43:32.046Z,99.90
2019-06-08T08:46:01.980Z,99.90
2019-06-08T08:48:32.402Z,99.90
2019-06-08T08:51:03.715Z,99.90
2019-06-08T08:53:32.813Z,99.90
2019-06-08T08:56:02.639Z,99.90
2019-06-08T08:58:32.104Z,99.90
2019-06-08T09:01:03.656Z,99.90
2019-06-08T09:03:33.582Z,99.90
2019-06-08T09:06:03.990Z,99.90
2019-06-08T09:08:33.608Z,99.90
2019-06-08T09:11:03.811Z,99.90
2019-06-08T09:13:33.678Z,99.90
2019-06-08T09:16:04.190Z,99.90
2019-06-08T09:18:33.848Z,99.90
2019-06-08T09:21:04.300Z,99.90
2019-06-08T09:23:33.821Z,99.90
2019-06-08T09:26:09.026Z,99.90
2019-06-08T09:28:34.325Z,99.90
2019-06-08T09:31:04.133Z,99.90
2019-06-08T09:33:33.569Z,99.90
2019-06-08T09:36:04.806Z,99.90
2019-06-08T09:38:33.993Z,99.90
2019-06-08T09:41:05.192Z,99.90
2019-06-08T09:43:34.516Z,99.90
2019-06-08T09:46:05.335Z,99.90
2019-06-08T09:48:34.977Z,98.30
2019-06-08T09:51:05.741Z,97.40
2019-06-08T09:53:38.875Z,97.30
2019-06-08T09:56:09.470Z,95.10
2019-06-08T09:58:39.171Z,96.30
2019-06-08T10:01:09.178Z,96.30
2019-06-08T10:03:40.341Z,97.10
2019-06-08T10:06:12.567Z,96.70
2019-06-08T10:08:40.720Z,97.30
2019-06-08T10:11:10.161Z,96.80
2019-06-08T10:13:43.041Z,97.60
2019-06-08T10:16:10.960Z,93.90
2019-06-08T10:18:40.842Z,92.10
2019-06-08T10:21:10.273Z,95.30
2019-06-08T10:23:41.614Z,91.80
2019-06-08T10:26:11.605Z,90.60
2019-06-08T10:28:40.970Z,91.90
2019-06-08T10:31:10.440Z,92.30
2019-06-08T10:33:40.534Z,93.70
2019-06-08T10:36:12.835Z,94.10
2019-06-08T10:38:41.518Z,96.10
2019-06-08T10:41:17.752Z,93.40
2019-06-08T10:43:42.036Z,93.60
2019-06-08T10:46:16.536Z,94.10
2019-06-08T10:48:42.434Z,94.90
2019-06-08T10:51:13.164Z,94.30
2019-06-08T10:53:48.478Z,93.20
2019-06-08T10:56:13.816Z,93.00
2019-06-08T10:58:43.226Z,92.30
2019-06-08T11:01:13.302Z,91.20
2019-06-08T11:03:43.182Z,92.50
2019-06-08T11:06:13.385Z,92.20
2019-06-08T11:08:43.020Z,90.60
2019-06-08T11:11:12.418Z,89.00
2019-06-08T11:13:41.888Z,86.60
2019-06-08T11:16:13.264Z,88.00
2019-06-08T11:18:42.280Z,91.90
2019-06-08T11:21:12.873Z,90.80
2019-06-08T11:23:42.427Z,91.00
2019-06-08T11:26:19.867Z,91.00
2019-06-08T11:28:42.820Z,90.80
2019-06-08T11:31:15.871Z,92.10
2019-06-08T11:33:43.220Z,89.90
2019-06-08T11:36:14.653Z,86.30
2019-06-08T11:38:43.611Z,90.40
2019-06-08T11:41:13.695Z,88.30
2019-06-08T11:43:43.359Z,82.90
2019-06-08T11:46:12.737Z,81.70
2019-06-08T11:48:42.100Z,83.40
2019-06-08T11:51:13.031Z,85.60
2019-06-08T11:53:42.565Z,91.60
2019-06-08T11:56:13.505Z,90.60
2019-06-08T11:58:43.818Z,86.70
2019-06-08T12:01:15.165Z,78.60
2019-06-08T12:03:44.212Z,82.60
2019-06-08T12:06:14.437Z,80.50
2019-06-08T12:08:44.075Z,79.20
2019-06-08T12:11:18.734Z,81.00
2019-06-08T12:13:44.551Z,81.30
2019-06-08T12:16:15.833Z,84.00
2019-06-08T12:18:44.953Z,88.30
2019-06-08T12:21:14.706Z,90.00
2019-06-08T12:23:44.105Z,86.80
2019-06-08T12:26:14.499Z,85.20
2019-06-08T12:28:44.042Z,83.20
2019-06-08T12:31:17.696Z,88.90
2019-06-08T12:33:44.441Z,88.10
2019-06-08T12:36:15.694Z,83.50
2019-06-08T12:38:44.833Z,80.30
2019-06-08T12:41:15.726Z,85.60
2019-06-08T12:43:47.818Z,85.00
2019-06-08T12:46:19.093Z,84.60
2019-06-08T12:48:47.400Z,80.00
2019-06-08T12:51:19.387Z,78.80
2019-06-08T12:53:47.776Z,81.80
2019-06-08T12:56:22.251Z,83.00
2019-06-08T12:58:48.175Z,87.30
2019-06-08T13:01:18.837Z,86.00
2019-06-08T13:03:48.581Z,85.00
2019-06-08T13:06:18.448Z,82.00
2019-06-08T13:08:48.667Z,83.10
2019-06-08T13:11:18.886Z,83.30
2019-06-08T13:13:49.103Z,83.20
2019-06-08T13:16:23.847Z,82.60
2019-06-08T13:18:49.444Z,86.00
2019-06-08T13:21:33.343Z,86.00
2019-06-08T13:23:49.827Z,82.30
2019-06-08T13:26:24.790Z,79.90
2019-06-08T13:28:50.212Z,82.60
2019-06-08T13:31:24.083Z,83.30
2019-06-08T13:33:50.617Z,84.40
2019-06-08T13:36:26.110Z,81.30
2019-06-08T13:38:51.011Z,83.40
2019-06-08T13:41:26.237Z,83.00
2019-06-08T13:43:51.404Z,82.30
2019-06-08T13:46:22.383Z,78.50
2019-06-08T13:48:51.928Z,82.50
2019-06-08T13:51:22.563Z,76.70
2019-06-08T13:53:52.319Z,78.20
2019-06-08T13:56:22.710Z,80.20
2019-06-08T13:58:52.728Z,82.10
2019-06-08T14:01:22.320Z,78.20
2019-06-08T14:03:52.483Z,79.80
2019-06-08T14:06:23.319Z,80.20
2019-06-08T14:08:53.328Z,80.10
2019-06-08T14:11:23.579Z,81.70
2019-06-08T14:13:53.455Z,79.60
2019-06-08T14:16:24.622Z,77.70
2019-06-08T14:18:53.860Z,81.80
2019-06-08T14:21:32.005Z,82.50
2019-06-08T14:23:54.271Z,77.50
2019-06-08T14:26:24.749Z,77.80
2019-06-08T14:28:54.692Z,80.10
2019-06-08T14:31:25.298Z,79.90
2019-06-08T14:33:55.103Z,77.70
2019-06-08T14:36:25.823Z,79.90
2019-06-08T14:38:55.485Z,81.00
2019-06-08T14:41:24.849Z,80.40
2019-06-08T14:43:54.247Z,78.60
2019-06-08T14:46:24.372Z,78.20
2019-06-08T14:48:53.992Z,80.30
2019-06-08T14:51:27.617Z,79.60
2019-06-08T14:53:58.230Z,78.70
2019-06-08T14:56:29.685Z,77.20
2019-06-08T14:59:00.373Z,79.40
2019-06-08T15:01:30.269Z,80.70
2019-06-08T15:04:00.404Z,78.00
2019-06-08T15:06:33.963Z,76.90
2019-06-08T15:09:00.862Z,79.20
2019-06-08T15:11:34.547Z,77.90
2019-06-08T15:14:01.256Z,79.40
2019-06-08T15:16:32.696Z,77.00
2019-06-08T15:19:01.652Z,79.10
2019-06-08T15:21:33.026Z,77.50
2019-06-08T15:24:02.060Z,78.20
2019-06-08T15:26:39.600Z,78.10
2019-06-08T15:29:02.687Z,76.80
2019-06-08T15:31:32.700Z,77.80
2019-06-08T15:34:02.124Z,77.10
2019-06-08T15:36:32.610Z,79.90
2019-06-08T15:39:02.172Z,79.00
2019-06-08T15:41:32.736Z,75.70
2019-06-08T15:44:02.223Z,78.00
2019-06-08T15:46:32.561Z,77.90
2019-06-08T15:49:01.968Z,76.70
2019-06-08T15:51:37.254Z,76.10
2019-06-08T15:54:03.163Z,76.90
2019-06-08T15:56:44.550Z,79.90
2019-06-08T15:59:03.589Z,78.70
2019-06-08T16:01:33.548Z,80.30
2019-06-08T16:04:04.150Z,79.10
2019-06-08T16:06:33.906Z,78.20
2019-06-08T16:09:05.844Z,77.50
2019-06-08T16:11:35.249Z,79.30
2019-06-08T16:14:04.799Z,78.30
2019-06-08T16:16:35.177Z,78.80
2019-06-08T16:19:04.631Z,77.50
2019-06-08T16:21:34.303Z,77.40
2019-06-08T16:24:03.808Z,78.50
2019-06-08T16:26:33.782Z,78.80
2019-06-08T16:29:03.253Z,79.60
2019-06-08T16:31:33.163Z,78.20
2019-06-08T16:34:02.595Z,77.90
2019-06-08T16:36:31.956Z,79.20
2019-06-08T16:39:01.341Z,81.10
2019-06-08T16:41:32.020Z,80.50
2019-06-08T16:44:01.500Z,78.80
2019-06-08T16:46:32.916Z,82.60
2019-06-08T16:49:01.901Z,82.60
2019-06-08T16:51:31.466Z,82.60
2019-06-08T16:54:01.177Z,81.90
2019-06-08T16:56:31.897Z,81.40
2019-06-08T16:59:01.351Z,79.30
2019-06-08T17:01:30.920Z,79.60
2019-06-08T17:04:00.332Z,81.70
2019-06-08T17:06:29.721Z,81.20
2019-06-08T17:08:59.084Z,82.50
2019-06-08T17:11:29.470Z,84.00
2019-06-08T17:13:59.036Z,81.90
2019-06-08T17:16:28.415Z,83.00
2019-06-08T17:18:57.781Z,82.00
2019-06-08T17:21:27.160Z,83.20
2019-06-08T17:23:56.524Z,82.50
2019-06-08T17:26:25.899Z,82.10
2019-06-08T17:28:55.253Z,81.30
2019-06-08T17:31:24.854Z,82.90
2019-06-08T17:33:54.208Z,82.80
2019-06-08T17:36:23.631Z,83.80
2019-06-08T17:38:53.000Z,82.30
2019-06-08T17:41:22.379Z,83.30
2019-06-08T17:43:51.745Z,85.30
2019-06-08T17:46:21.124Z,87.20
2019-06-08T17:48:50.479Z,86.50
2019-06-08T17:51:19.860Z,85.30
2019-06-08T17:53:49.223Z,86.10
2019-06-08T17:56:18.623Z,87.70
2019-06-08T17:58:47.983Z,86.20
2019-06-08T18:01:17.373Z,86.00
2019-06-08T18:03:48.289Z,86.90
2019-06-08T18:06:17.982Z,87.50
2019-06-08T18:08:48.046Z,87.80
2019-06-08T18:11:17.572Z,86.30
2019-06-08T18:13:48.384Z,86.10
2019-06-08T18:16:19.836Z,87.00
2019-06-08T18:18:49.160Z,89.60
2019-06-08T18:21:18.543Z,90.20
2019-06-08T18:23:48.263Z,90.90
2019-06-08T18:26:17.689Z,91.10
2019-06-08T18:28:48.598Z,90.40
2019-06-08T18:31:18.224Z,90.40
2019-06-08T18:33:50.206Z,91.60
2019-06-08T18:36:18.720Z,92.00
2019-06-08T18:38:48.625Z,92.50
2019-06-08T18:41:18.175Z,93.20
2019-06-08T18:43:49.527Z,93.80
2019-06-08T18:46:18.565Z,94.20
2019-06-08T18:48:49.297Z,95.00
2019-06-08T18:51:19.013Z,97.50
2019-06-08T18:54:06.849Z,99.50
2019-06-08T18:56:19.453Z,99.90
2019-06-08T18:58:53.556Z,99.90
2019-06-08T19:01:22.938Z,99.90
2019-06-08T19:03:52.883Z,99.90
2019-06-08T19:06:21.996Z,99.90
2019-06-08T19:08:51.876Z,99.90
2019-06-08T19:11:21.261Z,99.90
2019-06-08T19:13:52.525Z,99.90
2019-06-08T19:16:21.921Z,99.90
2019-06-08T19:18:52.774Z,99.90
2019-06-08T19:21:22.381Z,99.90
2019-06-08T19:23:51.780Z,99.90
2019-06-08T19:26:21.150Z,99.90
2019-06-08T19:28:54.072Z,99.90
2019-06-08T19:31:21.616Z,99.90
2019-06-08T19:33:53.497Z,99.90
2019-06-08T19:36:22.024Z,99.90
2019-06-08T19:38:54.443Z,99.90
2019-06-08T19:41:22.418Z,99.90
2019-06-08T19:43:54.666Z,99.90
2019-06-08T19:46:22.833Z,99.90
2019-06-08T19:48:54.808Z,99.90
2019-06-08T19:51:23.279Z,99.90
2019-06-08T19:53:55.024Z,99.90
2019-06-08T19:56:23.747Z,99.90
2019-06-08T19:59:01.802Z,99.90
2019-06-08T20:01:24.136Z,99.90
2019-06-08T20:03:53.513Z,99.90
2019-06-08T20:06:22.867Z,99.90
2019-06-08T20:08:53.366Z,99.90
2019-06-08T20:11:22.816Z,99.90
2019-06-08T20:13:52.263Z,99.90
2019-06-08T20:16:21.565Z,99.90
2019-06-08T20:18:51.701Z,99.90
2019-06-08T20:21:21.966Z,99.90
2019-06-08T20:23:51.342Z,99.90
2019-06-08T20:26:20.696Z,99.90
2019-06-08T20:28:52.925Z,99.90
2019-06-08T20:31:21.088Z,99.90
2019-06-08T20:33:52.134Z,99.90
2019-06-08T20:36:21.536Z,99.90
2019-06-08T20:38:50.980Z,99.90
2019-06-08T20:41:20.323Z,99.90
2019-06-08T20:43:51.917Z,99.90
2019-06-08T20:46:20.644Z,99.90
2019-06-08T20:48:51.596Z,99.90
2019-06-08T20:51:21.028Z,99.90
2019-06-08T20:53:50.915Z,99.90
2019-06-08T20:56:21.492Z,99.90
2019-06-08T20:58:52.501Z,99.90
2019-06-08T21:01:22.136Z,99.90
2019-06-08T21:03:52.710Z,99.90
2019-06-08T21:06:22.084Z,99.90
2019-06-08T21:08:53.103Z,99.90
2019-06-08T21:11:22.669Z,99.90
2019-06-08T21:13:52.799Z,99.90
2019-06-08T21:16:23.060Z,99.90
2019-06-08T21:18:52.983Z,99.90
2019-06-08T21:21:22.299Z,99.90
2019-06-08T21:23:54.244Z,99.90
2019-06-08T21:26:22.697Z,99.90
2019-06-08T21:28:54.099Z,99.90
2019-06-08T21:31:23.072Z,99.90
2019-06-08T21:33:53.938Z,99.90
2019-06-08T21:36:23.515Z,99.90
2019-06-08T21:38:55.378Z,99.90
2019-06-08T21:41:23.896Z,99.90
2019-06-08T21:43:55.621Z,99.90
2019-06-08T21:46:24.271Z,99.90
2019-06-08T21:48:54.569Z,99.90
2019-06-08T21:51:26.156Z,99.90
2019-06-08T21:53:56.813Z,99.90
2019-06-08T21:56:27.609Z,99.90
2019-06-08T21:58:59.620Z,99.90
2019-06-08T22:01:31.084Z,99.90
2019-06-08T22:04:00.472Z,99.90
2019-06-08T22:06:29.849Z,99.90
2019-06-08T22:09:01.218Z,99.90
2019-06-08T22:11:30.226Z,99.90
2019-06-08T22:14:00.834Z,99.90
2019-06-08T22:16:30.289Z,99.90
2019-06-08T22:19:00.857Z,99.90
2019-06-08T22:21:30.328Z,99.90
2019-06-08T22:24:00.853Z,99.90
2019-06-08T22:26:30.218Z,99.90
2019-06-08T22:29:01.004Z,99.90
2019-06-08T22:31:30.564Z,99.90
2019-06-08T22:34:02.083Z,99.90
2019-06-08T22:36:30.937Z,99.90
2019-06-08T22:39:01.016Z,99.90
2019-06-08T22:41:31.334Z,99.90
2019-06-08T22:44:00.936Z,99.90
2019-06-08T22:46:30.485Z,99.90
2019-06-08T22:49:02.270Z,99.90
2019-06-08T22:51:30.961Z,99.90
2019-06-08T22:54:01.993Z,99.90
2019-06-08T22:56:31.370Z,99.90
2019-06-08T22:59:05.570Z,99.90
2019-06-08T23:01:32.935Z,99.90
2019-06-08T23:04:04.360Z,99.90
2019-06-08T23:06:33.328Z,99.90
2019-06-08T23:09:04.064Z,99.90
2019-06-08T23:11:33.726Z,99.90
2019-06-08T23:14:06.509Z,99.90
2019-06-08T23:16:34.104Z,99.90
2019-06-08T23:19:03.474Z,99.90
2019-06-08T23:21:32.839Z,99.90
2019-06-08T23:24:02.852Z,99.90
2019-06-08T23:26:33.236Z,99.90
2019-06-08T23:29:02.597Z,99.90
2019-06-08T23:31:31.977Z,99.90
2019-06-08T23:34:04.826Z,99.90
2019-06-08T23:36:48.475Z,99.90
2019-06-08T23:39:05.106Z,99.90
2019-06-08T23:41:34.652Z,99.90
2019-06-08T23:44:04.025Z,99.90
2019-06-08T23:46:33.388Z,99.90
2019-06-08T23:49:04.344Z,99.90
2019-06-08T23:51:33.877Z,99.90
2019-06-08T23:54:04.257Z,99.90
2019-06-08T23:56:34.293Z,99.90
2019-06-08T23:59:03.652Z,99.90
